createdAt,value
2022-10-04T00:00:09.863Z,1.90
2022-10-04T00:02:47.969Z,1.90
2022-10-04T00:05:20.022Z,1.73
2022-10-04T00:07:52.494Z,1.83
2022-10-04T00:10:24.329Z,1.80
2022-10-04T00:12:59.998Z,2.77
2022-10-04T00:15:32.175Z,1.83
2022-10-04T00:18:09.559Z,1.87
2022-10-04T00:21:01.540Z,2.03
2022-10-04T00:23:46.365Z,2.17
2022-10-04T00:26:47.736Z,2.10
2022-10-04T00:29:35.246Z,2.03
2022-10-04T00:32:32.034Z,1.80
2022-10-04T00:35:01.577Z,1.83
2022-10-04T00:37:57.615Z,1.80
2022-10-04T00:40:30.183Z,2.10
2022-10-04T00:43:01.390Z,2.33
2022-10-04T00:45:42.519Z,2.60
2022-10-04T00:48:31.897Z,2.37
2022-10-04T00:51:05.689Z,1.90
2022-10-04T00:53:52.532Z,2.30
2022-10-04T00:56:27.956Z,3.03
2022-10-04T00:59:26.664Z,2.00
2022-10-04T01:02:01.040Z,2.63
2022-10-04T01:04:38.242Z,2.03
2022-10-04T01:07:08.975Z,1.87
2022-10-04T01:09:46.230Z,2.10
2022-10-04T01:12:23.199Z,2.50
2022-10-04T01:14:57.993Z,1.80
2022-10-04T01:17:27.995Z,2.20
2022-10-04T01:19:57.362Z,2.27
2022-10-04T01:22:39.308Z,2.70
2022-10-04T01:25:07.940Z,1.90
2022-10-04T01:27:41.995Z,2.00
2022-10-04T01:30:13.467Z,1.90
2022-10-04T01:32:43.585Z,2.07
2022-10-04T01:35:15.713Z,1.70
2022-10-04T01:37:46.111Z,2.10
2022-10-04T01:40:14.584Z,1.70
2022-10-04T01:42:49.098Z,1.87
2022-10-04T01:45:25.665Z,2.13
2022-10-04T01:47:59.602Z,2.23
2022-10-04T01:50:32.461Z,2.33
2022-10-04T01:53:13.242Z,2.27
2022-10-04T01:55:46.325Z,2.10
2022-10-04T01:58:18.794Z,2.80
2022-10-04T02:00:52.910Z,2.20
2022-10-04T02:03:26.249Z,2.77
2022-10-04T02:05:58.530Z,2.40
2022-10-04T02:08:32.298Z,2.03
2022-10-04T02:11:03.170Z,2.77
2022-10-04T02:13:38.719Z,2.73
2022-10-04T02:16:12.294Z,2.47
2022-10-04T02:18:43.845Z,1.90
2022-10-04T02:21:13.938Z,2.50
2022-10-04T02:23:45.419Z,2.17
2022-10-04T02:26:14.256Z,2.23
2022-10-04T02:28:42.754Z,2.40
2022-10-04T02:31:29.878Z,2.93
2022-10-04T02:34:00.130Z,2.10
2022-10-04T02:36:30.446Z,2.13
2022-10-04T02:39:06.178Z,1.87
2022-10-04T02:41:39.622Z,3.50
2022-10-04T02:44:15.922Z,1.87
2022-10-04T02:46:51.680Z,2.50
2022-10-04T02:49:28.993Z,1.90
2022-10-04T02:52:04.595Z,2.70
2022-10-04T02:54:41.447Z,2.30
2022-10-04T02:57:16.909Z,2.30
2022-10-04T02:59:45.404Z,2.00
2022-10-04T03:02:29.636Z,2.07
2022-10-04T03:05:03.294Z,2.00
2022-10-04T03:07:34.107Z,1.93
2022-10-04T03:10:08.710Z,2.43
2022-10-04T03:12:39.094Z,2.03
2022-10-04T03:15:09.641Z,2.20
2022-10-04T03:17:38.358Z,2.17
2022-10-04T03:20:08.000Z,2.27
2022-10-04T03:22:36.496Z,1.90
2022-10-04T03:25:07.510Z,2.40
2022-10-04T03:27:37.682Z,2.60
2022-10-04T03:30:07.221Z,2.27
2022-10-04T03:32:35.763Z,1.93
2022-10-04T03:35:07.803Z,2.20
2022-10-04T03:37:39.186Z,3.00
2022-10-04T03:40:11.978Z,2.27
2022-10-04T03:42:41.129Z,2.83
2022-10-04T03:45:15.811Z,2.57
2022-10-04T03:47:48.818Z,2.37
2022-10-04T03:50:21.285Z,2.17
2022-10-04T03:52:54.197Z,2.60
2022-10-04T03:55:27.223Z,2.53
2022-10-04T03:57:55.659Z,2.50
2022-10-04T04:00:24.160Z,1.90
2022-10-04T04:02:58.669Z,1.57
2022-10-04T04:05:31.748Z,2.40
2022-10-04T04:08:08.111Z,2.63
2022-10-04T04:10:43.224Z,2.03
2022-10-04T04:13:24.277Z,2.10
2022-10-04T04:15:57.926Z,2.03
2022-10-04T04:18:29.543Z,2.30
2022-10-04T04:21:00.827Z,2.00
2022-10-04T04:23:33.165Z,2.00
2022-10-04T04:26:16.600Z,2.07
2022-10-04T04:28:49.783Z,1.73
2022-10-04T04:31:22.453Z,2.00
2022-10-04T04:33:59.545Z,2.40
2022-10-04T04:36:30.083Z,1.83
2022-10-04T04:39:26.195Z,1.80
2022-10-04T04:41:56.215Z,1.87
2022-10-04T04:44:25.151Z,1.70
2022-10-04T04:47:00.728Z,2.00
2022-10-04T04:49:31.943Z,1.70
2022-10-04T04:52:00.393Z,3.17
2022-10-04T04:54:29.622Z,2.30
2022-10-04T04:56:59.599Z,2.20
2022-10-04T04:59:29.742Z,1.90
2022-10-04T05:01:58.233Z,1.77
2022-10-04T05:04:26.803Z,2.20
2022-10-04T05:07:05.129Z,2.17
2022-10-04T05:09:34.986Z,2.17
2022-10-04T05:12:10.065Z,2.60
2022-10-04T05:14:41.392Z,2.03
2022-10-04T05:17:10.646Z,2.87
2022-10-04T05:19:41.077Z,2.07
2022-10-04T05:22:11.767Z,2.10
2022-10-04T05:24:42.756Z,1.97
2022-10-04T05:27:18.018Z,1.70
2022-10-04T05:29:59.206Z,1.83
2022-10-04T05:32:35.307Z,2.20
2022-10-04T05:35:04.456Z,1.87
2022-10-04T05:37:47.015Z,2.90
2022-10-04T05:40:30.799Z,2.43
2022-10-04T05:43:00.790Z,1.83
2022-10-04T05:45:31.637Z,2.03
2022-10-04T05:48:02.864Z,1.93
2022-10-04T05:50:36.419Z,2.50
2022-10-04T05:53:18.934Z,2.20
2022-10-04T05:55:58.628Z,2.17
2022-10-04T05:58:51.037Z,2.70
2022-10-04T06:01:31.733Z,2.90
2022-10-04T06:04:28.674Z,1.90
2022-10-04T06:07:00.741Z,2.03
2022-10-04T06:10:02.067Z,1.97
2022-10-04T06:12:45.951Z,2.33
2022-10-04T06:15:52.668Z,2.70
2022-10-04T06:18:48.587Z,2.90
2022-10-04T06:21:28.483Z,2.70
2022-10-04T06:24:04.191Z,2.57
2022-10-04T06:26:43.912Z,2.13
2022-10-04T06:29:15.687Z,2.37
2022-10-04T06:32:14.151Z,2.20
2022-10-04T06:34:56.459Z,2.43
2022-10-04T06:37:40.737Z,2.20
2022-10-04T06:40:31.674Z,1.70
2022-10-04T06:43:23.836Z,3.03
2022-10-04T06:46:06.596Z,3.13
2022-10-04T06:49:01.829Z,2.10
2022-10-04T06:51:58.782Z,2.30
2022-10-04T06:54:42.248Z,2.50
2022-10-04T06:57:41.452Z,2.40
2022-10-04T07:00:15.698Z,2.70
2022-10-04T07:02:49.484Z,2.63
2022-10-04T07:05:30.819Z,2.23
2022-10-04T07:08:11.418Z,2.40
2022-10-04T07:10:49.021Z,2.93
2022-10-04T07:13:36.181Z,2.53
2022-10-04T07:16:10.015Z,2.07
2022-10-04T07:18:48.972Z,2.23
2022-10-04T07:21:20.115Z,2.27
2022-10-04T07:23:53.518Z,2.00
2022-10-04T07:26:28.948Z,2.13
2022-10-04T07:29:18.703Z,2.63
2022-10-04T07:31:49.495Z,2.50
2022-10-04T07:34:22.601Z,2.73
2022-10-04T07:36:55.783Z,2.37
2022-10-04T07:39:29.351Z,2.10
2022-10-04T07:42:02.373Z,1.63
2022-10-04T07:44:37.385Z,1.73
2022-10-04T07:47:16.201Z,1.93
2022-10-04T07:49:44.700Z,2.27
2022-10-04T07:52:39.830Z,2.33
2022-10-04T07:55:19.956Z,1.97
2022-10-04T07:57:59.732Z,1.90
2022-10-04T08:00:34.303Z,2.23
2022-10-04T08:03:46.925Z,1.67
2022-10-04T08:06:20.598Z,2.07
2022-10-04T08:09:12.901Z,1.73
2022-10-04T08:11:50.323Z,1.70
2022-10-04T08:14:31.513Z,1.43
2022-10-04T08:17:15.618Z,1.70
2022-10-04T08:19:52.925Z,1.93
2022-10-04T08:22:33.793Z,2.00
2022-10-04T08:25:17.107Z,1.80
2022-10-04T08:28:18.480Z,1.80
2022-10-04T08:31:17.678Z,2.00
2022-10-04T08:34:00.466Z,1.80
2022-10-04T08:36:41.055Z,2.00
2022-10-04T08:39:26.036Z,2.37
2022-10-04T08:42:42.263Z,1.67
2022-10-04T08:45:44.003Z,1.60
2022-10-04T08:48:50.563Z,1.20
2022-10-04T08:51:48.460Z,1.83
2022-10-04T08:54:57.342Z,1.97
2022-10-04T08:57:57.504Z,1.60
2022-10-04T09:00:38.926Z,2.10
2022-10-04T09:03:42.938Z,1.73
2022-10-04T09:06:38.352Z,1.70
2022-10-04T09:09:51.409Z,1.53
2022-10-04T09:12:37.496Z,1.93
2022-10-04T09:15:27.427Z,1.50
2022-10-04T09:18:02.995Z,1.60
2022-10-04T09:20:48.901Z,1.80
2022-10-04T09:23:50.506Z,1.43
2022-10-04T09:26:23.994Z,1.50
2022-10-04T09:29:17.243Z,1.50
2022-10-04T09:32:39.184Z,1.30
2022-10-04T09:35:38.280Z,1.50
2022-10-04T09:38:44.569Z,1.40
2022-10-04T09:41:34.668Z,2.23
2022-10-04T09:44:46.743Z,1.67
2022-10-04T09:47:44.055Z,1.50
2022-10-04T09:51:08.593Z,1.87
2022-10-04T09:53:45.285Z,1.70
2022-10-04T09:56:51.012Z,1.37
2022-10-04T09:59:37.634Z,2.03
2022-10-04T10:02:32.846Z,1.47
2022-10-04T10:05:24.636Z,1.70
2022-10-04T10:08:09.174Z,1.83
2022-10-04T10:11:04.297Z,1.30
2022-10-04T10:13:58.721Z,1.40
2022-10-04T10:16:42.502Z,1.67
2022-10-04T10:19:29.138Z,1.57
2022-10-04T10:22:16.009Z,1.20
2022-10-04T10:25:07.236Z,1.50
2022-10-04T10:27:50.882Z,1.70
2022-10-04T10:30:26.483Z,1.47
2022-10-04T10:33:33.844Z,1.60
2022-10-04T10:36:34.419Z,1.17
2022-10-04T10:39:24.438Z,1.70
2022-10-04T10:42:16.980Z,1.27
2022-10-04T10:45:10.698Z,1.40
2022-10-04T10:47:49.712Z,1.43
2022-10-04T10:50:58.713Z,1.87
2022-10-04T10:54:08.160Z,1.10
2022-10-04T10:56:47.595Z,1.40
2022-10-04T10:59:55.669Z,1.40
2022-10-04T11:03:13.268Z,1.43
2022-10-04T11:06:14.381Z,1.40
2022-10-04T11:09:22.642Z,1.53
2022-10-04T11:12:45.086Z,2.03
2022-10-04T11:16:08.669Z,1.60
2022-10-04T11:19:20.720Z,1.17
2022-10-04T11:22:19.310Z,1.30
2022-10-04T11:25:41.423Z,1.77
2022-10-04T11:28:18.595Z,1.70
2022-10-04T11:31:26.421Z,1.37
2022-10-04T11:34:35.561Z,1.30
2022-10-04T11:37:12.413Z,1.00
2022-10-04T11:39:54.062Z,1.20
2022-10-04T11:42:35.446Z,1.13
2022-10-04T11:45:21.915Z,1.57
2022-10-04T11:48:02.958Z,1.90
2022-10-04T11:50:51.613Z,1.20
2022-10-04T11:54:10.563Z,1.00
2022-10-04T11:56:56.704Z,1.20
2022-10-04T11:59:46.988Z,1.00
2022-10-04T12:02:49.329Z,1.17
2022-10-04T12:05:54.009Z,1.10
2022-10-04T12:08:48.483Z,1.33
2022-10-04T12:11:56.456Z,1.20
2022-10-04T12:14:40.634Z,1.57
2022-10-04T12:18:00.587Z,1.60
2022-10-04T12:20:44.867Z,1.27
2022-10-04T12:23:45.554Z,1.20
2022-10-04T12:26:50.610Z,1.63
2022-10-04T12:29:45.611Z,1.37
2022-10-04T12:32:19.982Z,1.20
2022-10-04T12:34:59.149Z,1.30
2022-10-04T12:37:35.667Z,1.63
2022-10-04T12:40:25.893Z,1.17
2022-10-04T12:42:59.970Z,1.30
2022-10-04T12:45:58.299Z,1.27
2022-10-04T12:48:40.755Z,1.67
2022-10-04T12:51:21.593Z,1.30
2022-10-04T12:53:58.724Z,0.80
2022-10-04T12:56:48.551Z,1.87
2022-10-04T12:59:45.088Z,1.10
2022-10-04T13:02:38.229Z,1.10
2022-10-04T13:05:17.520Z,1.00
2022-10-04T13:08:04.949Z,1.20
2022-10-04T13:10:45.885Z,1.40
2022-10-04T13:13:47.722Z,1.73
2022-10-04T13:19:20.566Z,1.30
2022-10-04T13:22:10.768Z,1.00
2022-10-04T13:24:58.208Z,1.00
2022-10-04T13:27:40.446Z,1.37
2022-10-04T13:30:23.607Z,1.13
2022-10-04T13:33:06.679Z,1.30
2022-10-04T13:35:42.996Z,1.43
2022-10-04T13:38:32.407Z,1.53
2022-10-04T13:41:17.963Z,1.23
2022-10-04T13:44:24.585Z,1.37
2022-10-04T13:47:11.373Z,0.90
2022-10-04T13:49:56.613Z,1.20
2022-10-04T13:52:54.533Z,1.00
2022-10-04T13:55:50.716Z,1.30
2022-10-04T13:58:32.885Z,1.07
2022-10-04T14:01:30.809Z,1.03
2022-10-04T14:04:21.071Z,1.10
2022-10-04T14:07:21.213Z,1.60
2022-10-04T14:10:12.509Z,1.20
2022-10-04T14:13:06.347Z,1.00
2022-10-04T14:15:52.813Z,1.03
2022-10-04T14:19:10.680Z,1.33
2022-10-04T14:22:26.865Z,1.23
2022-10-04T14:25:25.386Z,1.10
2022-10-04T14:28:28.274Z,1.10
2022-10-04T14:31:14.237Z,1.50
2022-10-04T14:34:13.050Z,1.00
2022-10-04T14:36:58.354Z,1.00
2022-10-04T14:39:54.043Z,1.63
2022-10-04T14:42:52.349Z,1.00
2022-10-04T14:45:33.010Z,1.00
2022-10-04T14:48:40.389Z,1.10
2022-10-04T14:51:33.494Z,1.20
2022-10-04T14:54:05.798Z,1.10
2022-10-04T14:57:06.672Z,1.30
2022-10-04T14:59:56.159Z,1.17
2022-10-04T15:02:49.620Z,1.50
2022-10-04T15:05:58.046Z,1.20
2022-10-04T15:08:48.321Z,1.13
2022-10-04T15:11:21.741Z,1.27
2022-10-04T15:13:55.937Z,1.23
2022-10-04T15:16:36.804Z,1.10
2022-10-04T15:19:12.878Z,0.93
2022-10-04T15:21:52.856Z,1.10
2022-10-04T15:24:29.145Z,1.10
2022-10-04T15:27:30.121Z,1.10
2022-10-04T15:30:10.530Z,1.00
2022-10-04T15:32:47.954Z,1.50
2022-10-04T15:35:27.945Z,1.10
2022-10-04T15:38:02.956Z,1.17
2022-10-04T15:40:48.813Z,1.63
2022-10-04T15:43:24.640Z,1.17
2022-10-04T15:46:40.028Z,1.00
2022-10-04T15:49:26.934Z,1.57
2022-10-04T15:52:16.293Z,1.20
2022-10-04T15:55:08.908Z,1.27
2022-10-04T15:57:57.134Z,1.40
2022-10-04T16:00:31.512Z,1.40
2022-10-04T16:03:26.754Z,1.40
2022-10-04T16:06:03.495Z,1.47
2022-10-04T16:08:58.013Z,1.10
2022-10-04T16:11:52.004Z,1.30
2022-10-04T16:14:47.162Z,1.17
2022-10-04T16:17:39.146Z,1.77
2022-10-04T16:20:50.678Z,1.40
2022-10-04T16:23:44.473Z,1.20
2022-10-04T16:26:16.274Z,1.60
2022-10-04T16:29:12.441Z,1.80
2022-10-04T16:31:50.659Z,1.40
2022-10-04T16:34:42.751Z,1.87
2022-10-04T16:37:29.885Z,1.50
2022-10-04T16:40:05.867Z,1.87
2022-10-04T16:42:49.604Z,1.60
2022-10-04T16:46:00.526Z,1.77
2022-10-04T16:48:37.861Z,1.83
2022-10-04T16:51:54.735Z,1.60
2022-10-04T16:54:49.464Z,2.00
2022-10-04T16:57:26.035Z,1.60
2022-10-04T16:59:57.142Z,2.03
2022-10-04T17:02:59.070Z,2.77
2022-10-04T17:05:57.089Z,2.67
2022-10-04T17:08:43.682Z,5.00
2022-10-04T17:11:33.964Z,4.77
2022-10-04T17:14:08.389Z,3.67
2022-10-04T17:16:40.071Z,4.00
2022-10-04T17:19:20.797Z,4.93
2022-10-04T17:22:04.408Z,3.70
2022-10-04T17:24:46.937Z,3.90
2022-10-04T17:27:27.715Z,6.07
2022-10-04T17:30:13.513Z,7.53
2022-10-04T17:32:56.766Z,5.70
2022-10-04T17:35:48.252Z,5.00
2022-10-04T17:38:26.589Z,4.90
2022-10-04T17:41:01.260Z,4.30
2022-10-04T17:43:36.714Z,3.83
2022-10-04T17:46:13.954Z,4.40
2022-10-04T17:49:05.226Z,4.10
2022-10-04T17:52:00.721Z,3.60
2022-10-04T17:54:53.040Z,4.10
2022-10-04T17:57:30.881Z,3.60
2022-10-04T18:00:09.763Z,4.00
2022-10-04T18:03:05.324Z,4.10
2022-10-04T18:05:48.833Z,3.53
2022-10-04T18:08:22.548Z,3.23
2022-10-04T18:10:56.079Z,3.37
2022-10-04T18:13:32.364Z,3.43
2022-10-04T18:16:12.739Z,3.63
2022-10-04T18:18:43.362Z,3.93
2022-10-04T18:21:26.528Z,3.70
2022-10-04T18:23:57.833Z,3.30
2022-10-04T18:26:30.814Z,3.77
2022-10-04T18:29:02.011Z,3.70
2022-10-04T18:31:37.485Z,4.00
2022-10-04T18:34:28.799Z,3.70
2022-10-04T18:37:07.159Z,3.30
2022-10-04T18:39:49.630Z,3.17
2022-10-04T18:42:27.681Z,3.83
2022-10-04T18:44:59.714Z,4.50
2022-10-04T18:47:36.088Z,3.87
2022-10-04T18:50:16.861Z,4.53
2022-10-04T18:52:58.189Z,4.10
2022-10-04T18:55:34.803Z,3.73
2022-10-04T18:58:32.021Z,3.67
2022-10-04T19:01:48.381Z,2.80
2022-10-04T19:04:27.790Z,3.40
2022-10-04T19:07:02.684Z,3.50
2022-10-04T19:09:42.096Z,5.27
2022-10-04T19:12:17.169Z,4.20
2022-10-04T19:14:56.206Z,4.27
2022-10-04T19:17:31.719Z,3.53
2022-10-04T19:20:07.479Z,3.43
2022-10-04T19:22:51.021Z,3.63
2022-10-04T19:25:31.482Z,3.20
2022-10-04T19:28:06.359Z,4.10
2022-10-04T19:31:01.510Z,3.70
2022-10-04T19:33:41.276Z,3.60
2022-10-04T19:36:26.701Z,3.33
2022-10-04T19:39:12.357Z,4.00
2022-10-04T19:41:52.635Z,3.70
2022-10-04T19:44:46.206Z,3.93
2022-10-04T19:47:31.255Z,3.53
2022-10-04T19:50:05.059Z,3.50
2022-10-04T19:52:40.045Z,4.03
2022-10-04T19:55:21.427Z,4.00
2022-10-04T19:57:59.038Z,3.50
2022-10-04T20:00:27.878Z,4.00
2022-10-04T20:02:57.948Z,3.83
2022-10-04T20:05:27.011Z,3.50
2022-10-04T20:08:05.182Z,3.67
2022-10-04T20:10:36.410Z,4.37
2022-10-04T20:13:25.595Z,4.30
2022-10-04T20:15:56.509Z,5.43
2022-10-04T20:18:59.277Z,5.27
2022-10-04T20:21:32.309Z,6.33
2022-10-04T20:24:05.212Z,32.97
2022-10-04T20:26:56.734Z,235.53
2022-10-04T20:30:07.558Z,599.27
2022-10-04T20:32:59.296Z,290.83
2022-10-04T20:36:08.670Z,94.77
2022-10-04T20:38:47.526Z,197.67
2022-10-04T20:42:18.377Z,228.40
2022-10-04T20:44:56.365Z,16.30
2022-10-04T20:47:39.383Z,84.03
2022-10-04T20:50:17.047Z,365.47
2022-10-04T20:52:48.099Z,200.13
2022-10-04T20:55:27.486Z,92.73
2022-10-04T20:57:58.022Z,149.93
2022-10-04T21:00:28.420Z,338.87
2022-10-04T21:03:16.756Z,404.23
2022-10-04T21:05:48.778Z,16.50
2022-10-04T21:08:26.081Z,7.90
2022-10-04T21:11:19.127Z,6.67
2022-10-04T21:13:53.696Z,8.33
2022-10-04T21:16:39.623Z,6.37
2022-10-04T21:19:50.526Z,6.87
2022-10-04T21:22:43.523Z,7.03
2022-10-04T21:25:42.032Z,6.33
2022-10-04T21:28:34.633Z,6.57
2022-10-04T21:31:04.650Z,6.80
2022-10-04T21:33:35.318Z,7.30
2022-10-04T21:36:04.155Z,7.13
2022-10-04T21:38:33.005Z,7.60
2022-10-04T21:41:01.537Z,7.50
2022-10-04T21:43:30.121Z,7.70
2022-10-04T21:46:00.285Z,7.17
2022-10-04T21:48:28.795Z,7.30
2022-10-04T21:50:57.389Z,7.40
2022-10-04T21:53:26.406Z,7.27
2022-10-04T21:55:56.082Z,8.17
2022-10-04T21:58:24.548Z,7.40
2022-10-04T22:00:53.126Z,6.47
2022-10-04T22:03:23.217Z,7.03
2022-10-04T22:05:51.729Z,7.10
2022-10-04T22:08:20.241Z,7.07
2022-10-04T22:10:48.957Z,8.27
2022-10-04T22:13:18.953Z,7.53
2022-10-04T22:15:47.609Z,7.63
2022-10-04T22:18:16.167Z,7.90
2022-10-04T22:20:46.217Z,6.80
2022-10-04T22:23:20.433Z,7.47
2022-10-04T22:25:49.177Z,7.73
2022-10-04T22:28:23.420Z,7.70
2022-10-04T22:30:53.758Z,7.37
2022-10-04T22:33:30.030Z,7.03
2022-10-04T22:36:01.589Z,7.13
2022-10-04T22:38:30.138Z,7.53
2022-10-04T22:41:01.709Z,6.93
2022-10-04T22:43:30.162Z,54.23
2022-10-04T22:45:58.754Z,231.13
2022-10-04T22:48:29.201Z,253.03
2022-10-04T22:50:57.917Z,357.10
2022-10-04T22:53:29.040Z,419.23
2022-10-04T22:55:58.242Z,28.97
2022-10-04T22:58:28.300Z,177.40
2022-10-04T23:00:56.970Z,224.53
2022-10-04T23:03:31.476Z,349.60
2022-10-04T23:06:00.612Z,53.03
2022-10-04T23:08:30.801Z,10.53
2022-10-04T23:11:01.130Z,20.43
2022-10-04T23:13:29.731Z,11.03
2022-10-04T23:16:01.239Z,7.53
2022-10-04T23:18:30.531Z,7.60
2022-10-04T23:21:02.728Z,7.90
2022-10-04T23:23:33.366Z,7.13
2022-10-04T23:26:01.800Z,7.50
2022-10-04T23:28:30.259Z,7.77
2022-10-04T23:31:07.185Z,7.47
2022-10-04T23:33:36.093Z,7.87
2022-10-04T23:36:04.677Z,7.83
2022-10-04T23:38:34.891Z,8.17
2022-10-04T23:41:04.355Z,8.80
2022-10-04T23:43:33.021Z,7.70
2022-10-04T23:46:01.611Z,8.97
2022-10-04T23:48:32.562Z,8.57
2022-10-04T23:51:01.211Z,8.60
2022-10-04T23:53:32.733Z,9.30
2022-10-04T23:56:05.900Z,271.63
2022-10-04T23:58:37.772Z,42.07
